createdAt,value
2018-04-20T00:00:33.217Z,13.10
2018-04-20T00:03:00.877Z,13.10
2018-04-20T00:05:28.493Z,13.00
2018-04-20T00:07:56.099Z,12.90
2018-04-20T00:10:23.723Z,12.80
2018-04-20T00:12:52.140Z,12.70
2018-04-20T00:15:19.747Z,12.70
2018-04-20T00:17:47.365Z,12.80
2018-04-20T00:20:15.026Z,12.80
2018-04-20T00:22:42.656Z,12.90
2018-04-20T00:25:11.070Z,12.80
2018-04-20T00:27:38.713Z,12.80
2018-04-20T00:30:07.101Z,12.60
2018-04-20T00:32:35.480Z,12.70
2018-04-20T00:35:04.038Z,12.60
2018-04-20T00:37:31.650Z,12.60
2018-04-20T00:40:00.069Z,12.40
2018-04-20T00:42:27.690Z,12.40
2018-04-20T00:44:56.075Z,12.40
2018-04-20T00:47:24.675Z,12.40
2018-04-20T00:49:52.263Z,12.30
2018-04-20T00:52:19.880Z,12.30
2018-04-20T00:54:48.292Z,12.10
2018-04-20T00:57:15.892Z,12.10
2018-04-20T00:59:43.518Z,12.00
2018-04-20T01:02:11.894Z,11.90
2018-04-20T01:04:40.313Z,11.90
2018-04-20T01:07:07.931Z,11.80
2018-04-20T01:09:35.523Z,11.80
2018-04-20T01:12:03.151Z,11.80
2018-04-20T01:14:30.747Z,11.80
2018-04-20T01:16:59.160Z,11.70
2018-04-20T01:19:26.792Z,11.60
2018-04-20T01:21:54.444Z,11.60
2018-04-20T01:24:22.852Z,11.60
2018-04-20T01:26:50.498Z,11.50
2018-04-20T01:29:18.935Z,11.50
2018-04-20T01:31:46.528Z,11.40
2018-04-20T01:34:14.127Z,11.30
2018-04-20T01:36:42.534Z,11.30
2018-04-20T01:39:10.263Z,11.20
2018-04-20T01:41:38.677Z,11.20
2018-04-20T01:44:06.379Z,11.20
2018-04-20T01:46:34.053Z,11.20
2018-04-20T01:49:02.480Z,11.20
2018-04-20T01:51:30.112Z,11.10
2018-04-20T01:53:57.851Z,11.10
2018-04-20T01:56:25.496Z,11.00
2018-04-20T01:58:53.152Z,11.00
2018-04-20T02:01:20.819Z,11.00
2018-04-20T02:03:48.424Z,10.90
2018-04-20T02:06:16.187Z,11.00
2018-04-20T02:08:43.812Z,10.80
2018-04-20T02:11:12.199Z,10.80
2018-04-20T02:13:40.620Z,10.70
2018-04-20T02:16:08.232Z,10.70
2018-04-20T02:18:35.919Z,10.70
2018-04-20T02:21:03.575Z,10.60
2018-04-20T02:23:32.026Z,10.50
2018-04-20T02:25:59.658Z,10.50
2018-04-20T02:28:27.283Z,10.60
2018-04-20T02:30:55.724Z,10.60
2018-04-20T02:33:23.371Z,10.60
2018-04-20T02:35:51.012Z,10.60
2018-04-20T02:38:19.423Z,10.50
2018-04-20T02:40:47.020Z,10.50
2018-04-20T02:43:14.656Z,10.30
2018-04-20T02:45:43.035Z,10.40
2018-04-20T02:48:10.839Z,10.40
2018-04-20T02:50:38.695Z,10.50
2018-04-20T02:53:06.349Z,10.40
2018-04-20T02:55:34.019Z,10.20
2018-04-20T02:58:01.649Z,10.40
2018-04-20T03:00:29.313Z,10.30
2018-04-20T03:02:56.905Z,10.30
2018-04-20T03:05:24.535Z,10.30
2018-04-20T03:07:52.401Z,10.20
2018-04-20T03:10:20.027Z,10.20
2018-04-20T03:12:47.645Z,10.10
2018-04-20T03:15:16.077Z,10.20
2018-04-20T03:17:43.984Z,10.20
2018-04-20T03:20:11.728Z,10.20
2018-04-20T03:22:39.409Z,10.20
2018-04-20T03:25:07.057Z,10.20
2018-04-20T03:27:34.725Z,10.20
2018-04-20T03:30:02.353Z,10.00
2018-04-20T03:32:31.483Z,10.00
2018-04-20T03:34:59.137Z,10.00
2018-04-20T03:37:27.845Z,10.00
2018-04-20T03:39:55.474Z,10.00
2018-04-20T03:42:23.105Z,10.00
2018-04-20T03:44:50.801Z,10.00
2018-04-20T03:47:18.423Z,10.10
2018-04-20T03:49:46.413Z,10.20
2018-04-20T03:52:14.092Z,10.20
2018-04-20T03:54:42.940Z,10.20
2018-04-20T03:57:10.552Z,10.00
2018-04-20T03:59:39.367Z,9.90
2018-04-20T04:02:07.203Z,9.90
2018-04-20T04:04:35.512Z,10.00
2018-04-20T04:07:03.938Z,10.20
2018-04-20T04:09:31.569Z,10.20
2018-04-20T04:11:59.216Z,10.10
2018-04-20T04:14:26.848Z,10.00
2018-04-20T04:17:06.456Z,9.90
2018-04-20T04:19:47.431Z,9.80
2018-04-20T04:22:27.741Z,9.90
2018-04-20T04:25:07.388Z,9.90
2018-04-20T04:41:05.933Z,10.30
2018-04-20T04:43:33.545Z,10.30
2018-04-20T04:46:01.967Z,10.40
2018-04-20T04:48:29.624Z,10.40
2018-04-20T04:50:58.239Z,10.40
2018-04-20T04:53:26.095Z,10.50
2018-04-20T04:55:54.539Z,10.60
2018-04-20T04:58:22.545Z,10.70
2018-04-20T05:00:50.184Z,10.80
2018-04-20T05:03:19.279Z,10.90
2018-04-20T05:05:47.887Z,11.00
2018-04-20T05:08:15.562Z,10.90
2018-04-20T05:10:43.187Z,11.10
2018-04-20T05:13:10.817Z,11.10
2018-04-20T05:15:38.481Z,11.10
2018-04-20T05:18:06.133Z,11.20
2018-04-20T05:20:33.818Z,11.20
2018-04-20T05:23:01.426Z,11.30
2018-04-20T05:25:29.867Z,11.40
2018-04-20T05:27:57.540Z,11.40
2018-04-20T05:30:25.139Z,11.50
2018-04-20T05:32:53.714Z,11.70
2018-04-20T05:35:21.423Z,11.70
2018-04-20T05:37:49.074Z,11.80
2018-04-20T05:40:17.614Z,11.90
2018-04-20T05:42:45.283Z,11.90
2018-04-20T05:45:12.940Z,12.00
2018-04-20T05:47:40.554Z,12.00
2018-04-20T05:50:08.231Z,12.10
2018-04-20T05:52:36.656Z,12.40
2018-04-20T05:55:04.274Z,12.40
2018-04-20T05:57:32.733Z,12.70
2018-04-20T06:00:00.371Z,12.70
2018-04-20T06:02:28.009Z,12.80
2018-04-20T06:04:55.671Z,12.90
2018-04-20T06:07:24.075Z,13.20
2018-04-20T06:09:51.743Z,13.20
2018-04-20T06:12:19.375Z,13.40
2018-04-20T06:14:47.011Z,13.60
2018-04-20T06:17:15.382Z,13.90
2018-04-20T06:19:43.073Z,13.90
2018-04-20T06:22:10.764Z,14.10
2018-04-20T06:24:39.143Z,14.40
2018-04-20T06:27:07.577Z,14.50
2018-04-20T06:29:35.228Z,14.40
2018-04-20T06:32:02.895Z,14.60
2018-04-20T06:34:30.560Z,14.80
2018-04-20T06:36:58.223Z,15.10
2018-04-20T06:39:25.883Z,15.20
2018-04-20T06:41:54.295Z,15.40
2018-04-20T06:44:21.952Z,15.40
2018-04-20T06:46:49.550Z,15.80
2018-04-20T06:49:17.933Z,16.00
2018-04-20T06:51:45.552Z,16.00
2018-04-20T06:54:13.920Z,16.60
2018-04-20T06:56:42.339Z,16.90
2018-04-20T06:59:09.971Z,16.90
2018-04-20T07:01:38.427Z,17.30
2018-04-20T07:04:06.049Z,17.30
2018-04-20T07:06:33.695Z,17.70
2018-04-20T07:09:02.109Z,17.80
2018-04-20T07:11:29.831Z,17.80
2018-04-20T07:13:58.193Z,18.40
2018-04-20T07:16:26.585Z,18.50
2018-04-20T07:18:54.230Z,18.50
2018-04-20T07:21:21.855Z,18.80
2018-04-20T07:23:49.452Z,19.10
2018-04-20T07:26:17.085Z,19.60
2018-04-20T07:28:45.511Z,19.60
2018-04-20T07:31:13.474Z,19.60
2018-04-20T07:33:41.091Z,19.80
2018-04-20T07:36:09.470Z,20.20
2018-04-20T07:38:37.337Z,20.20
2018-04-20T07:41:04.992Z,20.40
2018-04-20T07:43:32.631Z,20.60
2018-04-20T07:46:00.226Z,20.70
2018-04-20T07:48:27.852Z,20.80
2018-04-20T07:50:55.465Z,20.90
2018-04-20T07:53:23.103Z,21.00
2018-04-20T07:55:50.683Z,20.90
2018-04-20T07:58:18.294Z,21.40
2018-04-20T08:00:45.923Z,21.80
2018-04-20T08:03:13.567Z,21.50
2018-04-20T08:05:41.935Z,22.00
2018-04-20T08:08:09.612Z,22.00
2018-04-20T08:10:37.244Z,22.30
2018-04-20T08:13:05.661Z,22.80
2018-04-20T08:15:33.283Z,22.80
2018-04-20T08:18:01.657Z,23.30
2018-04-20T08:20:30.064Z,23.70
2018-04-20T08:22:57.675Z,23.70
2018-04-20T08:25:25.322Z,24.00
2018-04-20T08:27:52.962Z,24.30
2018-04-20T08:30:20.557Z,24.10
2018-04-20T08:32:48.198Z,24.20
2018-04-20T08:35:15.828Z,24.60
2018-04-20T08:37:43.478Z,24.30
2018-04-20T08:40:11.124Z,24.50
2018-04-20T08:42:38.715Z,24.50
2018-04-20T08:45:06.374Z,25.00
2018-04-20T08:47:34.037Z,25.20
2018-04-20T08:50:01.648Z,25.60
2018-04-20T08:52:30.058Z,25.90
2018-04-20T08:54:57.700Z,25.90
2018-04-20T08:57:26.076Z,26.40
2018-04-20T08:59:54.442Z,25.90
2018-04-20T09:02:22.074Z,25.90
2018-04-20T09:04:49.731Z,26.00
2018-04-20T09:07:18.154Z,26.10
2018-04-20T09:09:45.767Z,26.10
2018-04-20T09:12:13.412Z,26.60
2018-04-20T09:14:41.793Z,26.70
2018-04-20T09:17:10.175Z,26.80
2018-04-20T09:19:38.572Z,26.90
2018-04-20T09:22:06.198Z,26.80
2018-04-20T09:24:33.831Z,26.70
2018-04-20T09:27:01.457Z,26.60
2018-04-20T09:29:29.078Z,27.10
2018-04-20T09:31:56.709Z,27.40
2018-04-20T09:34:24.624Z,27.10
2018-04-20T09:36:52.323Z,27.30
2018-04-20T09:39:19.969Z,27.50
2018-04-20T09:41:47.627Z,27.50
2018-04-20T09:44:15.252Z,27.60
2018-04-20T09:46:42.854Z,27.60
2018-04-20T09:49:11.284Z,28.60
2018-04-20T09:51:39.708Z,28.10
2018-04-20T09:54:07.380Z,28.10
2018-04-20T09:56:35.031Z,28.00
